createdAt,value
2023-01-29T00:00:52.076Z,-1.52
2023-01-29T00:05:53.971Z,-1.51
2023-01-29T00:11:05.464Z,-1.49
2023-01-29T00:16:09.054Z,-1.52
2023-01-29T00:21:21.904Z,-1.54
2023-01-29T00:26:34.224Z,-1.65
2023-01-29T00:31:38.168Z,-1.72
2023-01-29T00:36:47.042Z,-1.74
2023-01-29T00:42:09.439Z,-1.79
2023-01-29T00:48:13.328Z,-1.82
2023-01-29T00:53:53.774Z,-1.86
2023-01-29T00:59:25.748Z,-1.82
2023-01-29T01:04:27.620Z,-1.80
2023-01-29T01:09:53.537Z,-1.84
2023-01-29T01:14:55.490Z,-1.93
2023-01-29T01:21:06.192Z,-2.01
2023-01-29T01:26:25.435Z,-2.04
2023-01-29T01:31:27.836Z,-2.11
2023-01-29T01:36:32.736Z,-2.16
2023-01-29T01:41:37.549Z,-2.31
2023-01-29T01:46:39.910Z,-2.44
2023-01-29T01:51:49.424Z,-2.46
2023-01-29T01:57:08.650Z,-2.42
2023-01-29T02:02:37.830Z,-2.38
2023-01-29T02:08:09.423Z,-2.36
2023-01-29T02:13:18.949Z,-2.37
2023-01-29T02:18:56.732Z,-2.39
2023-01-29T02:25:39.884Z,-2.41
2023-01-29T02:32:22.447Z,-2.41
2023-01-29T02:38:35.067Z,-2.43
2023-01-29T02:44:02.725Z,-2.38
2023-01-29T02:50:15.919Z,-2.39
2023-01-29T02:55:53.011Z,-2.37
2023-01-29T03:00:59.178Z,-2.36
2023-01-29T03:06:34.750Z,-2.36
2023-01-29T03:11:47.001Z,-2.37
2023-01-29T03:16:54.825Z,-2.39
2023-01-29T03:22:03.705Z,-2.37
2023-01-29T03:27:47.093Z,-2.31
2023-01-29T03:33:03.353Z,-2.22
2023-01-29T03:38:14.408Z,-2.15
2023-01-29T03:43:44.637Z,-2.16
2023-01-29T03:49:02.431Z,-2.13
2023-01-29T03:54:13.994Z,-2.10
2023-01-29T03:59:30.144Z,-2.12
2023-01-29T04:05:16.402Z,-2.16
2023-01-29T04:10:39.104Z,-2.20
2023-01-29T04:15:55.601Z,-2.24
2023-01-29T04:22:19.466Z,-2.18
2023-01-29T04:28:25.575Z,-2.10
2023-01-29T04:34:30.515Z,-2.07
2023-01-29T04:39:48.698Z,-2.09
2023-01-29T04:44:57.346Z,-2.16
2023-01-29T04:51:02.107Z,-2.19
2023-01-29T04:57:26.444Z,-2.15
2023-01-29T05:03:57.638Z,-2.14
2023-01-29T05:09:26.213Z,-2.19
2023-01-29T05:15:34.891Z,-2.21
2023-01-29T05:21:56.077Z,-2.28
2023-01-29T05:27:47.117Z,-2.20
2023-01-29T05:32:55.744Z,-2.15
2023-01-29T05:38:10.160Z,-2.12
2023-01-29T05:43:23.024Z,-2.08
2023-01-29T05:48:35.103Z,-2.08
2023-01-29T05:54:36.494Z,-2.14
2023-01-29T06:01:00.920Z,-2.20
2023-01-29T06:07:22.295Z,-2.17
2023-01-29T06:13:49.157Z,-2.14
2023-01-29T06:20:10.250Z,-2.16
2023-01-29T06:25:31.743Z,-2.19
2023-01-29T06:30:36.073Z,-2.27
2023-01-29T06:35:40.465Z,-2.36
2023-01-29T06:41:18.713Z,-2.35
2023-01-29T06:46:41.011Z,-2.35
2023-01-29T06:51:58.733Z,-2.35
2023-01-29T06:57:05.471Z,-2.31
2023-01-29T07:02:11.722Z,-2.26
2023-01-29T07:07:13.359Z,-2.24
2023-01-29T07:12:15.275Z,-2.22
2023-01-29T07:17:16.930Z,-2.18
2023-01-29T07:22:18.498Z,-2.16
2023-01-29T07:27:29.482Z,-2.20
2023-01-29T07:32:30.919Z,-2.26
2023-01-29T07:37:32.678Z,-2.23
2023-01-29T07:42:34.560Z,-2.11
2023-01-29T07:47:39.738Z,-1.98
2023-01-29T07:52:41.372Z,-1.71
2023-01-29T07:57:46.520Z,-1.39
2023-01-29T08:02:48.130Z,-0.72
2023-01-29T08:08:05.733Z,0.04
2023-01-29T08:13:08.324Z,0.78
2023-01-29T08:18:14.033Z,0.49
2023-01-29T08:23:18.235Z,0.12
2023-01-29T08:28:20.032Z,-0.16
2023-01-29T08:33:29.621Z,-0.24
2023-01-29T08:38:44.789Z,-0.37
2023-01-29T08:43:46.316Z,-0.50
2023-01-29T08:49:05.927Z,-0.59
2023-01-29T08:54:10.287Z,-0.78
2023-01-29T08:59:15.274Z,-0.92
2023-01-29T09:04:17.014Z,-1.01
2023-01-29T09:09:18.957Z,-0.89
2023-01-29T09:14:23.694Z,-0.82
2023-01-29T09:19:28.410Z,-0.77
2023-01-29T09:24:53.339Z,-0.61
2023-01-29T09:29:57.971Z,-0.41
2023-01-29T09:34:59.982Z,-0.28
2023-01-29T09:40:40.860Z,-0.25
2023-01-29T09:47:01.321Z,-0.34
2023-01-29T09:52:13.861Z,-0.43
2023-01-29T09:57:23.855Z,-0.62
2023-01-29T10:02:25.846Z,-0.74
2023-01-29T10:08:00.711Z,-0.81
2023-01-29T10:13:26.535Z,-0.82
2023-01-29T10:19:12.417Z,-0.79
2023-01-29T10:24:31.627Z,-0.72
2023-01-29T10:29:40.938Z,-0.75
2023-01-29T10:34:49.032Z,-0.66
2023-01-29T10:39:58.206Z,-0.41
2023-01-29T10:45:15.970Z,-0.26
2023-01-29T10:50:20.669Z,0.00
2023-01-29T10:55:33.979Z,0.26
2023-01-29T11:00:40.040Z,0.30
2023-01-29T11:05:54.800Z,0.92
2023-01-29T11:11:18.446Z,1.62
2023-01-29T11:16:20.335Z,2.11
2023-01-29T11:21:23.868Z,2.28
2023-01-29T11:26:28.701Z,2.39
2023-01-29T11:31:38.246Z,2.85
2023-01-29T11:36:40.296Z,3.09
2023-01-29T11:42:11.119Z,2.94
2023-01-29T11:47:23.456Z,3.03
2023-01-29T11:52:43.147Z,3.06
2023-01-29T11:58:12.156Z,2.87
2023-01-29T12:03:23.233Z,3.25
2023-01-29T12:08:42.078Z,3.57
2023-01-29T12:13:57.070Z,3.47
2023-01-29T12:19:28.979Z,3.16
2023-01-29T12:24:37.939Z,2.55
2023-01-29T12:29:49.296Z,2.30
2023-01-29T12:34:53.088Z,1.79
2023-01-29T12:40:20.801Z,1.40
2023-01-29T12:45:27.762Z,1.06
2023-01-29T12:50:34.464Z,0.85
2023-01-29T12:55:44.203Z,0.64
2023-01-29T13:00:50.480Z,0.52
2023-01-29T13:05:57.602Z,0.57
2023-01-29T13:11:03.426Z,0.41
2023-01-29T13:16:11.497Z,0.47
2023-01-29T13:21:17.477Z,0.45
2023-01-29T13:26:32.060Z,0.43
2023-01-29T13:31:40.270Z,0.40
2023-01-29T13:36:48.569Z,0.39
2023-01-29T13:41:51.846Z,0.22
2023-01-29T13:47:09.113Z,0.06
2023-01-29T13:52:25.702Z,-0.14
2023-01-29T13:57:35.632Z,-0.12
2023-01-29T14:02:37.200Z,-0.10
2023-01-29T14:07:49.528Z,-0.12
2023-01-29T14:13:17.614Z,-0.21
2023-01-29T14:18:23.591Z,-0.37
2023-01-29T14:23:53.051Z,-0.46
2023-01-29T14:29:16.579Z,-0.59
2023-01-29T14:34:26.377Z,-0.77
2023-01-29T14:39:32.642Z,-0.91
2023-01-29T14:45:03.558Z,-1.02
2023-01-29T14:50:45.305Z,-1.16
2023-01-29T14:55:50.161Z,-1.25
2023-01-29T15:00:57.628Z,-1.34
2023-01-29T15:06:05.049Z,-1.39
2023-01-29T15:11:34.634Z,-1.44
2023-01-29T15:17:04.230Z,-1.43
2023-01-29T15:22:12.221Z,-1.43
2023-01-29T15:27:17.665Z,-1.49
2023-01-29T15:32:27.932Z,-1.59
2023-01-29T15:37:36.586Z,-1.64
2023-01-29T15:42:45.984Z,-1.67
2023-01-29T15:47:47.944Z,-1.63
2023-01-29T15:53:03.148Z,-1.62
2023-01-29T15:58:06.127Z,-1.63
2023-01-29T16:03:27.520Z,-1.67
2023-01-29T16:08:32.167Z,-1.73
2023-01-29T16:13:37.695Z,-1.72
2023-01-29T16:18:54.255Z,-1.66
2023-01-29T16:24:07.049Z,-1.61
2023-01-29T16:29:28.453Z,-1.65
2023-01-29T16:35:32.665Z,-1.72
2023-01-29T16:41:14.144Z,-1.74
2023-01-29T16:46:45.117Z,-1.69
2023-01-29T16:52:58.349Z,-1.66
2023-01-29T16:58:58.762Z,-1.68
2023-01-29T17:04:32.676Z,-1.66
2023-01-29T17:09:40.533Z,-1.64
2023-01-29T17:15:17.407Z,-1.60
2023-01-29T17:20:19.470Z,-1.63
2023-01-29T17:25:23.743Z,-1.66
2023-01-29T17:30:36.821Z,-1.67
2023-01-29T17:35:50.556Z,-1.65
2023-01-29T17:41:15.078Z,-1.67
2023-01-29T17:46:18.062Z,-1.73
2023-01-29T17:51:19.509Z,-1.73
2023-01-29T17:56:27.021Z,-1.75
2023-01-29T18:01:28.669Z,-1.78
2023-01-29T18:06:30.563Z,-1.82
2023-01-29T18:11:35.984Z,-1.81
2023-01-29T18:16:39.326Z,-1.81
2023-01-29T18:21:42.808Z,-1.86
2023-01-29T18:26:44.700Z,-1.86
2023-01-29T18:31:54.575Z,-1.83
2023-01-29T18:37:03.818Z,-1.82
2023-01-29T18:42:05.432Z,-1.86
2023-01-29T18:47:09.760Z,-1.88
2023-01-29T18:52:15.872Z,-1.87
2023-01-29T18:58:26.067Z,-1.86
2023-01-29T19:02:47.683Z,-1.85
2023-01-29T19:07:49.848Z,-1.85
2023-01-29T19:12:51.734Z,-1.90
2023-01-29T19:17:53.518Z,-1.97
2023-01-29T19:22:55.185Z,-1.99
2023-01-29T19:27:56.853Z,-1.97
2023-01-29T19:32:58.646Z,-1.98
2023-01-29T19:38:00.737Z,-2.00
2023-01-29T19:43:02.227Z,-2.04
2023-01-29T19:48:03.621Z,-2.11
2023-01-29T19:53:05.281Z,-2.13
2023-01-29T19:58:06.536Z,-2.15
2023-01-29T20:03:07.987Z,-2.16
2023-01-29T20:08:10.247Z,-2.16
2023-01-29T20:13:18.282Z,-2.16
2023-01-29T20:18:19.624Z,-2.18
2023-01-29T20:23:36.542Z,-2.21
2023-01-29T20:28:39.494Z,-2.23
2023-01-29T20:33:42.115Z,-2.28
2023-01-29T20:38:44.189Z,-2.35
2023-01-29T20:43:46.480Z,-2.38
2023-01-29T20:48:49.008Z,-2.41
2023-01-29T20:53:50.423Z,-2.45
2023-01-29T20:58:51.836Z,-2.43
2023-01-29T21:03:53.211Z,-2.46
2023-01-29T21:08:55.150Z,-2.48
2023-01-29T21:13:57.175Z,-2.45
2023-01-29T21:18:58.732Z,-2.44
2023-01-29T21:24:00.625Z,-2.46
2023-01-29T21:29:02.382Z,-2.43
2023-01-29T21:34:04.608Z,-2.47
2023-01-29T21:39:16.003Z,-2.50
2023-01-29T21:44:17.374Z,-2.52
2023-01-29T21:49:22.766Z,-2.54
2023-01-29T21:54:30.358Z,-2.55
2023-01-29T21:59:31.967Z,-2.53
2023-01-29T22:04:33.579Z,-2.49
2023-01-29T22:09:43.828Z,-2.48
2023-01-29T22:14:47.650Z,-2.53
2023-01-29T22:19:49.505Z,-2.56
2023-01-29T22:24:52.037Z,-2.59
2023-01-29T22:29:53.472Z,-2.63
2023-01-29T22:34:55.013Z,-2.67
2023-01-29T22:39:56.625Z,-2.65
2023-01-29T22:44:58.014Z,-2.65
2023-01-29T22:49:59.593Z,-2.65
2023-01-29T22:55:01.139Z,-2.62
2023-01-29T23:00:10.416Z,-2.58
2023-01-29T23:05:16.742Z,-2.56
2023-01-29T23:10:21.247Z,-2.59
2023-01-29T23:15:29.345Z,-2.59
2023-01-29T23:20:36.618Z,-2.65
2023-01-29T23:25:56.928Z,-2.69
2023-01-29T23:30:58.705Z,-2.68
2023-01-29T23:36:04.284Z,-2.67
2023-01-29T23:41:09.002Z,-2.67
2023-01-29T23:46:11.048Z,-2.65
2023-01-29T23:51:12.969Z,-2.66
2023-01-29T23:56:23.478Z,-2.76
